Time;durP1;ratioP1;P1;durP2;ratioP2;P2;SDS_P1;SDS_P2;PMS_P1;PMS_P2;Temp;Humidity;BMP_temperature;BMP_pressure;BME280_temperature;BME280_humidity;BME280_pressure;Samples;Min_cycle;Max_cycle;Signal;HPM_P1;HPM_P2
2023/08/06 00:05:20;;;;;;;4.37;2.50;;;;;;;16.59;67.16;99439.16;20769137;28;20286;-80
2023/08/06 00:15:23;;;;;;;3.35;2.58;;;;;;;16.19;68.50;99435.09;20761181;28;20302;-80
2023/08/06 00:25:25;;;;;;;2.97;2.70;;;;;;;16.56;67.05;99426.56;20761332;28;20219;-80
2023/08/06 00:35:29;;;;;;;3.33;3.00;;;;;;;16.57;67.90;99421.69;20769807;28;20641;-81
2023/08/06 00:45:37;;;;;;;4.57;2.07;;;;;;;15.23;68.96;99419.63;20790242;28;20239;-81
2023/08/06 00:55:39;;;;;;;6.63;2.97;;;;;;;16.44;66.46;99404.09;20764127;28;21608;-81
2023/08/06 01:05:42;;;;;;;4.05;2.97;;;;;;;16.72;65.60;99393.03;20759359;28;20302;-81
2023/08/06 01:15:50;;;;;;;3.28;3.00;;;;;;;16.72;67.54;99384.50;20746393;28;20641;-82
2023/08/06 01:26:08;;;;;;;2.47;2.00;;;;;;;16.79;65.77;99373.19;20771046;28;20621;-81
2023/08/06 01:36:11;;;;;;;3.85;2.33;;;;;;;16.76;66.61;99364.63;20771503;28;20220;-80
2023/08/06 01:46:13;;;;;;;4.82;2.75;;;;;;;16.51;66.63;99359.56;20756940;28;20200;-82
2023/08/06 01:56:16;;;;;;;3.30;2.60;;;;;;;15.61;69.14;99370.31;20787125;28;20940;-80
2023/08/06 02:06:19;;;;;;;4.07;2.33;;;;;;;16.10;67.53;99357.97;20772750;28;20224;-80
2023/08/06 02:16:21;;;;;;;3.92;2.38;;;;;;;15.46;70.45;99363.66;20796531;28;20247;-82
2023/08/06 02:26:24;;;;;;;4.78;2.75;;;;;;;16.26;67.91;99346.31;20771681;28;20197;-81
2023/08/06 02:36:29;;;;;;;5.10;2.85;;;;;;;16.15;67.28;99332.03;20795169;28;20217;-81
2023/08/06 02:46:34;;;;;;;3.13;2.80;;;;;;;15.83;69.77;99317.53;20810730;28;20643;-80
2023/08/06 02:56:37;;;;;;;6.20;2.28;;;;;;;16.22;66.95;99302.91;20794883;28;20560;-81
2023/08/06 03:06:52;;;;;;;3.65;2.65;;;;;;;16.04;67.93;99291.41;20783921;28;20220;-79
2023/08/06 03:16:58;;;;;;;3.00;2.67;;;;;;;16.13;67.19;99289.03;20758110;28;20275;-79
2023/08/06 03:27:01;;;;;;;3.65;2.78;;;;;;;16.11;66.97;99283.75;20755945;28;20219;-81
2023/08/06 03:37:06;;;;;;;7.85;3.25;;;;;;;15.83;67.96;99277.00;20759184;28;20278;-80
2023/08/06 03:47:09;;;;;;;3.33;2.53;;;;;;;16.04;67.32;99280.03;20756159;28;20231;-80
2023/08/06 03:57:12;;;;;;;7.60;3.42;;;;;;;15.64;68.27;99275.97;20757396;28;20232;-80
2023/08/06 04:07:15;;;;;;;4.90;3.00;;;;;;;16.16;65.95;99265.56;20741349;28;20646;-80
2023/08/06 04:17:21;;;;;;;4.93;2.90;;;;;;;15.72;66.70;99274.81;20735783;28;20229;-79
2023/08/06 04:27:25;;;;;;;3.90;3.25;;;;;;;15.62;68.06;99263.38;20778308;28;20196;-79
2023/08/06 04:37:29;;;;;;;2.70;2.47;;;;;;;15.85;66.08;99266.88;20758539;28;20224;-79
2023/08/06 04:47:31;;;;;;;3.28;2.97;;;;;;;15.59;68.04;99264.97;20770908;28;20200;-79
2023/08/06 04:57:34;;;;;;;4.33;3.30;;;;;;;16.00;66.26;99267.84;20790930;28;20702;-79
2023/08/06 05:07:36;;;;;;;4.00;2.67;;;;;;;16.09;66.48;99271.19;20752399;28;20228;-79
2023/08/06 05:17:39;;;;;;;4.60;2.60;;;;;;;16.21;65.98;99278.56;20767914;28;20560;-79
2023/08/06 05:27:42;;;;;;;3.45;3.00;;;;;;;16.22;66.63;99280.22;20751034;28;20605;-79
2023/08/06 05:37:44;;;;;;;3.55;2.70;;;;;;;16.60;65.69;99288.25;20743954;28;20224;-79
2023/08/06 05:47:50;;;;;;;3.60;2.60;;;;;;;16.48;66.69;99283.66;20765589;28;20679;-80
2023/08/06 05:57:52;;;;;;;3.30;2.10;;;;;;;16.49;66.79;99284.47;20755533;28;20306;-79
2023/08/06 06:07:55;;;;;;;4.05;2.45;;;;;;;17.01;64.72;99291.75;20753411;28;20718;-80
2023/08/06 06:17:58;;;;;;;3.17;2.92;;;;;;;17.02;65.02;99295.41;20786819;28;20220;-79
2023/08/06 06:28:00;;;;;;;3.10;2.45;;;;;;;17.06;63.12;99294.19;20753106;28;20200;-79
2023/08/06 06:38:03;;;;;;;3.10;2.33;;;;;;;17.55;62.09;99301.31;20772471;28;20251;-79
2023/08/06 06:48:06;;;;;;;5.90;2.25;;;;;;;17.31;65.23;99307.72;20743715;28;20228;-79
2023/08/06 06:58:08;;;;;;;5.72;2.58;;;;;;;17.54;64.41;99296.84;20742890;28;20641;-79
2023/08/06 07:08:11;;;;;;;6.07;2.85;;;;;;;17.11;66.69;99305.19;20746157;28;20324;-78
2023/08/06 07:18:14;;;;;;;3.90;2.30;;;;;;;17.63;63.66;99297.28;20757164;28;20252;-79
2023/08/06 07:28:17;;;;;;;3.45;2.35;;;;;;;17.63;61.57;99302.16;20750337;28;20236;-81
2023/08/06 07:38:20;;;;;;;4.28;2.28;;;;;;;18.50;60.23;99314.09;20749959;28;20263;-81
2023/08/06 07:48:24;;;;;;;3.58;1.58;;;;;;;18.34;59.31;99314.50;20765501;28;20251;-80
2023/08/06 07:58:30;;;;;;;4.43;1.73;;;;;;;18.07;63.72;99321.78;20782941;28;20221;-80
2023/08/06 08:08:32;;;;;;;3.65;2.08;;;;;;;17.86;65.35;99323.38;20762430;28;20224;-80
2023/08/06 08:18:36;;;;;;;1.77;1.30;;;;;;;18.07;59.03;99324.66;20767060;28;21464;-80
2023/08/06 08:28:39;;;;;;;4.05;1.63;;;;;;;18.06;62.45;99325.88;20781315;28;20670;-81
2023/08/06 08:38:42;;;;;;;2.35;1.83;;;;;;;17.99;62.33;99329.53;20774074;28;20286;-82
2023/08/06 08:48:46;;;;;;;1.63;1.25;;;;;;;17.40;62.26;99337.44;20760049;28;20200;-81
2023/08/06 08:58:48;;;;;;;2.33;1.15;;;;;;;17.26;63.24;99336.56;20756766;28;20250;-81
2023/08/06 09:08:57;;;;;;;2.03;1.00;;;;;;;17.31;62.98;99347.53;20763641;28;20225;-80
2023/08/06 09:19:08;;;;;;;1.63;1.25;;;;;;;17.55;62.66;99353.34;20771534;28;20248;-79
2023/08/06 09:29:11;;;;;;;2.92;1.40;;;;;;;17.63;62.68;99357.03;20746993;28;20228;-80
2023/08/06 09:39:16;;;;;;;9.10;2.40;;;;;;;17.87;62.24;99352.66;20753264;28;20252;-80
2023/08/06 09:49:21;;;;;;;2.95;2.08;;;;;;;18.19;62.65;99352.72;20784085;28;20209;-80
2023/08/06 09:59:26;;;;;;;3.53;2.72;;;;;;;18.08;60.36;99363.28;20758376;28;20277;-80
2023/08/06 10:09:29;;;;;;;4.80;2.50;;;;;;;18.73;56.44;99354.41;20787104;28;20274;-80
2023/08/06 10:19:32;;;;;;;3.35;1.92;;;;;;;18.24;57.94;99358.03;20737444;28;20228;-80
2023/08/06 10:29:36;;;;;;;3.78;3.10;;;;;;;18.39;58.51;99353.97;20763372;28;20196;-79
2023/08/06 10:39:48;;;;;;;3.78;2.45;;;;;;;18.33;60.09;99347.06;20744545;28;20235;-80
2023/08/06 10:49:51;;;;;;;2.33;2.10;;;;;;;19.26;57.23;99337.19;20729069;28;20543;-80
2023/08/06 10:59:54;;;;;;;2.13;1.88;;;;;;;19.51;53.70;99345.69;20746660;28;20292;-81
2023/08/06 11:10:17;;;;;;;2.75;2.05;;;;;;;19.29;54.88;99355.56;20753713;28;20224;-81
2023/08/06 11:20:21;;;;;;;2.15;1.90;;;;;;;18.43;54.92;99360.50;20729226;28;20243;-80
2023/08/06 11:30:26;;;;;;;3.67;2.35;;;;;;;19.14;55.54;99351.09;20762449;28;20197;-80
2023/08/06 11:40:30;;;;;;;3.22;2.35;;;;;;;18.97;55.71;99358.44;20757493;28;20216;-80
2023/08/06 11:50:36;;;;;;;2.22;1.80;;;;;;;18.49;55.20;99360.91;20770425;28;20529;-81
2023/08/06 12:00:39;;;;;;;1.90;1.80;;;;;;;18.31;57.72;99363.75;20758711;28;20239;-81
2023/08/06 12:10:42;;;;;;;6.38;3.92;;;;;;;18.77;58.05;99362.97;20755547;28;20247;-80
2023/08/06 12:20:45;;;;;;;3.03;2.83;;;;;;;17.98;61.57;99392.56;20757913;28;20699;-84
2023/08/06 12:30:49;;;;;;;5.40;4.47;;;;;;;17.89;64.75;99404.28;20771243;28;20223;-80
2023/08/06 12:40:52;;;;;;;6.35;5.85;;;;;;;16.75;69.38;99414.16;20765229;28;20310;-81
2023/08/06 12:50:55;;;;;;;3.33;3.03;;;;;;;16.29;70.50;99440.06;20769925;28;20193;-80
2023/08/06 13:00:57;;;;;;;2.23;2.13;;;;;;;16.03;70.63;99452.34;20753042;28;20302;-80
2023/08/06 13:11:00;;;;;;;0.95;0.95;;;;;;;15.30;73.39;99484.13;20704829;28;20284;-83
2023/08/06 13:21:04;;;;;;;0.43;0.40;;;;;;;15.78;71.21;99488.91;20715540;28;20630;-85
2023/08/06 13:31:07;;;;;;;0.33;0.00;;;;;;;14.12;72.51;99508.66;20701658;28;20271;-82
2023/08/06 13:41:10;;;;;;;0.37;0.10;;;;;;;14.89;70.47;99508.53;20692437;28;20218;-81
2023/08/06 13:51:13;;;;;;;1.97;0.40;;;;;;;15.85;68.97;99527.09;20693978;28;20198;-79
2023/08/06 14:01:18;;;;;;;0.47;0.20;;;;;;;15.85;68.33;99535.63;20687170;28;20252;-81
2023/08/06 14:11:22;;;;;;;0.30;0.20;;;;;;;15.52;69.85;99550.47;20691201;28;20232;-82
2023/08/06 14:21:24;;;;;;;0.43;0.30;;;;;;;15.73;71.62;99565.78;20708466;28;20276;-81
2023/08/06 14:31:27;;;;;;;0.22;0.17;;;;;;;15.49;69.41;99574.72;20723479;28;20193;-81
2023/08/06 14:41:31;;;;;;;0.35;0.20;;;;;;;14.69;71.29;99593.53;20697189;28;20521;-82
2023/08/06 14:51:48;;;;;;;0.70;0.30;;;;;;;14.77;72.36;99613.50;20962387;27;20625;-81
2023/08/06 15:01:52;;;;;;;0.50;0.47;;;;;;;15.48;71.50;99614.81;20960852;28;20285;-83
2023/08/06 15:11:56;;;;;;;3.70;0.90;;;;;;;15.28;72.57;99616.91;20955971;28;20269;-80
2023/08/06 15:21:59;;;;;;;3.42;1.50;;;;;;;15.07;73.52;99646.50;20904904;28;20191;-81
2023/08/06 15:32:03;;;;;;;2.20;1.50;;;;;;;15.09;71.93;99672.44;20918743;28;20264;-82
2023/08/06 15:42:06;;;;;;;1.45;1.00;;;;;;;14.31;72.09;99682.09;20911692;28;20212;-79
2023/08/06 15:52:08;;;;;;;1.47;1.10;;;;;;;15.48;68.51;99682.84;20928862;28;20208;-79
2023/08/06 16:02:13;;;;;;;1.90;1.10;;;;;;;14.95;70.80;99688.31;20861551;28;20696;-79
2023/08/06 16:12:19;;;;;;;1.92;1.30;;;;;;;14.53;72.04;99691.09;20851808;28;20261;-80
2023/08/06 16:22:22;;;;;;;3.17;1.50;;;;;;;15.31;72.52;99701.22;20896477;28;20216;-80
2023/08/06 16:32:25;;;;;;;2.28;1.70;;;;;;;14.97;71.14;99712.25;20863200;28;20226;-81
2023/08/06 16:42:27;;;;;;;1.92;1.73;;;;;;;15.14;70.72;99730.03;20880087;28;20256;-80
2023/08/06 16:52:30;;;;;;;1.97;1.73;;;;;;;15.35;69.98;99733.25;20835637;28;20219;-80
2023/08/06 17:02:33;;;;;;;2.38;1.88;;;;;;;14.92;70.26;99743.72;20868465;28;20277;-80
2023/08/06 17:12:36;;;;;;;2.73;1.80;;;;;;;14.46;71.76;99745.53;20893739;28;20230;-81
2023/08/06 17:22:39;;;;;;;3.57;2.07;;;;;;;14.20;73.07;99759.47;20869947;28;20308;-81
2023/08/06 17:32:43;;;;;;;3.05;2.55;;;;;;;14.32;72.62;99763.00;20879069;28;20618;-83
2023/08/06 17:42:46;;;;;;;2.42;2.05;;;;;;;14.99;71.80;99780.72;20869831;28;20223;-81
2023/08/06 17:53:14;;;;;;;2.97;2.55;;;;;;;14.74;73.35;99790.66;20890904;28;20260;-82
2023/08/06 18:03:20;;;;;;;3.55;3.20;;;;;;;15.39;70.49;99800.19;20824420;28;20282;-83
2023/08/06 18:13:23;;;;;;;4.37;2.70;;;;;;;14.72;73.15;99805.19;20893341;28;20195;-85
2023/08/06 18:23:26;;;;;;;5.10;3.30;;;;;;;14.61;73.66;99808.97;20836636;28;20247;-83
2023/08/06 18:33:30;;;;;;;3.00;2.70;;;;;;;14.71;74.15;99808.38;20829886;28;20223;-83
2023/08/06 18:43:33;;;;;;;3.20;1.40;;;;;;;13.91;75.41;99820.13;20857795;28;20254;-84
2023/08/06 18:53:35;;;;;;;3.17;0.70;;;;;;;13.50;75.11;99855.38;20809723;28;20701;-84
2023/08/06 19:03:38;;;;;;;2.47;0.23;;;;;;;13.50;73.24;99867.50;20835923;28;20312;-82
2023/08/06 19:13:41;;;;;;;2.28;0.30;;;;;;;13.93;71.48;99891.31;20833928;28;20600;-83
2023/08/06 19:23:44;;;;;;;2.43;0.40;;;;;;;13.64;73.53;99913.13;20860238;28;20269;-83
2023/08/06 19:33:47;;;;;;;6.00;0.53;;;;;;;13.42;73.65;99910.88;20852140;28;20489;-83
2023/08/06 19:43:49;;;;;;;1.80;0.50;;;;;;;13.40;74.52;99918.88;20869249;28;20341;-83
2023/08/06 19:53:52;;;;;;;1.67;0.90;;;;;;;14.28;72.05;99925.44;20826533;28;20277;-83
2023/08/06 20:03:55;;;;;;;5.30;1.42;;;;;;;14.11;72.13;99937.91;20851468;28;20255;-83
2023/08/06 20:13:59;;;;;;;2.47;0.80;;;;;;;13.95;73.35;99937.84;20859722;28;20220;-83
2023/08/06 20:24:02;;;;;;;4.77;0.60;;;;;;;14.24;71.68;99948.00;20844395;28;20216;-87
2023/08/06 20:34:05;;;;;;;2.90;0.60;;;;;;;13.61;73.08;99961.94;20838919;28;20199;-83
2023/08/06 20:44:07;;;;;;;2.80;0.40;;;;;;;13.33;73.69;99967.50;20852703;28;20228;-83
2023/08/06 20:54:10;;;;;;;3.47;0.82;;;;;;;13.58;71.42;99962.66;20857996;28;20277;-82
2023/08/06 21:04:12;;;;;;;4.47;1.00;;;;;;;13.91;69.81;99964.38;20894338;28;20295;-82
2023/08/06 21:14:15;;;;;;;9.03;1.47;;;;;;;13.68;71.60;99969.78;20859535;28;20192;-82
2023/08/06 21:24:18;;;;;;;4.30;1.50;;;;;;;13.87;70.62;99978.44;20857876;28;20243;-82
2023/08/06 21:34:21;;;;;;;9.00;2.07;;;;;;;13.54;72.06;99969.38;20890375;28;20223;-82
2023/08/06 21:44:24;;;;;;;5.30;1.80;;;;;;;13.44;73.13;99981.19;20837431;28;20251;-81
2023/08/06 21:54:27;;;;;;;3.25;1.60;;;;;;;13.57;72.69;99980.78;20826060;28;20207;-83
2023/08/06 22:04:29;;;;;;;4.40;1.57;;;;;;;13.63;72.33;99979.38;20813585;28;20248;-81
2023/08/06 22:14:32;;;;;;;3.47;1.17;;;;;;;12.89;75.45;99988.28;20845155;28;20648;-82
2023/08/06 22:24:35;;;;;;;3.33;1.70;;;;;;;13.21;74.22;99980.84;20879351;28;20258;-85
2023/08/06 22:34:38;;;;;;;3.63;2.00;;;;;;;13.56;73.02;99973.47;20890640;28;20200;-83
2023/08/06 22:44:41;;;;;;;1.37;1.10;;;;;;;13.76;72.15;99976.50;20879185;28;20224;-83
2023/08/06 22:54:43;;;;;;;1.97;1.20;;;;;;;13.23;73.85;99981.31;20856677;28;20200;-83
2023/08/06 23:05:06;;;;;;;3.47;2.20;;;;;;;13.80;71.92;99971.75;20867258;28;20269;-82
2023/08/06 23:15:09;;;;;;;3.92;3.30;;;;;;;13.13;74.98;99967.66;20874068;28;20257;-82
2023/08/06 23:25:12;;;;;;;7.80;5.00;;;;;;;13.47;73.14;99966.34;20889055;28;20219;-83
2023/08/06 23:35:14;;;;;;;8.63;4.30;;;;;;;13.25;73.85;99965.63;20873975;28;20199;-83
2023/08/06 23:45:17;;;;;;;7.70;4.83;;;;;;;13.54;73.17;99953.22;20899556;28;20709;-83
2023/08/06 23:55:20;;;;;;;4.57;4.17;;;;;;;12.92;74.63;99954.50;20874253;28;20242;-82
